createdAt,value
2023-04-17T00:02:48.764Z,90.38
2023-04-17T00:05:54.152Z,90.45
2023-04-17T00:08:56.578Z,91.12
2023-04-17T00:11:59.383Z,90.70
2023-04-17T00:15:01.810Z,91.19
2023-04-17T00:18:04.573Z,91.01
2023-04-17T00:21:07.066Z,91.63
2023-04-17T00:24:09.667Z,92.60
2023-04-17T00:27:11.979Z,92.92
2023-04-17T00:30:14.793Z,93.16
2023-04-17T00:33:17.156Z,93.98
2023-04-17T00:36:19.783Z,94.78
2023-04-17T00:39:23.111Z,95.04
2023-04-17T00:42:25.749Z,95.98
2023-04-17T00:45:28.298Z,96.91
2023-04-17T00:48:31.473Z,97.33
2023-04-17T00:51:34.345Z,97.53
2023-04-17T00:54:37.355Z,98.66
2023-04-17T00:57:40.883Z,99.49
2023-04-17T01:00:43.781Z,99.58
2023-04-17T01:03:46.541Z,99.89
2023-04-17T01:06:49.346Z,100.00
2023-04-17T01:09:52.121Z,100.00
2023-04-17T01:13:04.663Z,99.87
2023-04-17T01:16:07.501Z,100.00
2023-04-17T01:19:12.325Z,100.00
2023-04-17T01:22:16.483Z,100.00
2023-04-17T01:25:19.654Z,99.83
2023-04-17T01:28:24.281Z,99.90
2023-04-17T01:31:29.016Z,100.00
2023-04-17T01:34:31.589Z,100.00
2023-04-17T01:37:34.250Z,100.00
2023-04-17T01:40:36.613Z,100.00
2023-04-17T01:43:40.406Z,100.00
2023-04-17T01:46:42.790Z,100.00
2023-04-17T01:49:45.698Z,100.00
2023-04-17T01:52:48.382Z,100.00
2023-04-17T01:55:52.298Z,100.00
2023-04-17T01:58:54.793Z,100.00
2023-04-17T02:01:57.730Z,100.00
2023-04-17T02:05:00.784Z,100.00
2023-04-17T02:08:03.181Z,100.00
2023-04-17T02:11:05.779Z,99.95
2023-04-17T02:14:08.154Z,98.99
2023-04-17T02:17:10.816Z,98.36
2023-04-17T02:20:14.108Z,97.84
2023-04-17T02:23:16.712Z,96.88
2023-04-17T02:26:19.404Z,97.43
2023-04-17T02:29:21.860Z,96.36
2023-04-17T02:32:24.651Z,95.27
2023-04-17T02:35:28.545Z,94.56
2023-04-17T02:38:31.768Z,94.56
2023-04-17T02:41:34.368Z,95.37
2023-04-17T02:44:38.767Z,94.50
2023-04-17T02:47:43.112Z,94.21
2023-04-17T02:50:46.240Z,94.38
2023-04-17T02:53:49.337Z,94.74
2023-04-17T02:56:54.978Z,94.75
2023-04-17T02:59:57.448Z,95.23
2023-04-17T03:03:01.071Z,95.16
2023-04-17T03:06:03.954Z,95.23
2023-04-17T03:09:06.736Z,95.95
2023-04-17T03:12:10.401Z,97.14
2023-04-17T03:15:13.076Z,97.91
2023-04-17T03:18:15.566Z,99.26
2023-04-17T03:21:18.208Z,98.88
2023-04-17T03:24:21.164Z,99.42
2023-04-17T03:27:24.735Z,96.14
2023-04-17T03:30:27.373Z,96.24
2023-04-17T03:33:30.345Z,96.63
2023-04-17T03:36:32.836Z,97.00
2023-04-17T03:39:35.709Z,96.74
2023-04-17T03:42:38.105Z,96.77
2023-04-17T03:45:40.916Z,96.64
2023-04-17T03:48:43.322Z,96.30
2023-04-17T03:51:46.453Z,97.05
2023-04-17T03:54:50.258Z,97.58
2023-04-17T03:57:53.009Z,98.15
2023-04-17T04:00:58.518Z,97.81
2023-04-17T04:04:02.020Z,96.85
2023-04-17T04:07:05.737Z,97.00
2023-04-17T04:10:09.513Z,96.86
2023-04-17T04:13:14.936Z,97.57
2023-04-17T04:16:18.731Z,97.49
2023-04-17T04:19:21.342Z,97.71
2023-04-17T04:22:24.334Z,96.44
2023-04-17T04:25:26.961Z,95.46
2023-04-17T04:28:31.903Z,93.89
2023-04-17T04:31:35.806Z,94.40
2023-04-17T04:34:39.193Z,93.93
2023-04-17T04:37:42.971Z,94.73
2023-04-17T04:40:52.271Z,96.10
2023-04-17T04:43:55.091Z,96.34
2023-04-17T04:46:58.205Z,96.76
2023-04-17T04:50:01.138Z,96.47
2023-04-17T04:53:04.052Z,96.58
2023-04-17T04:56:07.673Z,96.95
2023-04-17T04:59:11.520Z,97.25
2023-04-17T05:02:16.501Z,97.73
2023-04-17T05:05:19.500Z,96.96
2023-04-17T05:08:21.997Z,95.19
2023-04-17T05:11:26.130Z,94.43
2023-04-17T05:14:28.801Z,93.68
2023-04-17T05:17:31.766Z,85.26
2023-04-17T05:20:34.383Z,79.42
2023-04-17T05:23:37.178Z,77.71
2023-04-17T05:26:41.226Z,75.93
2023-04-17T05:29:44.623Z,75.05
2023-04-17T05:32:48.630Z,73.51
2023-04-17T05:35:54.079Z,72.69
2023-04-17T05:38:58.659Z,70.59
2023-04-17T05:42:01.578Z,70.14
2023-04-17T05:45:04.960Z,69.04
2023-04-17T05:48:08.328Z,68.68
2023-04-17T05:51:10.807Z,68.89
2023-04-17T05:54:13.820Z,67.32
2023-04-17T05:57:16.555Z,66.14
2023-04-17T06:00:22.714Z,64.86
2023-04-17T06:03:26.971Z,63.92
2023-04-17T06:06:31.516Z,63.53
2023-04-17T06:09:34.399Z,63.70
2023-04-17T06:12:40.509Z,62.16
2023-04-17T06:15:43.388Z,62.95
2023-04-17T06:18:46.196Z,62.00
2023-04-17T06:21:49.212Z,61.25
2023-04-17T06:24:51.689Z,60.39
2023-04-17T06:27:54.230Z,59.21
2023-04-17T06:30:57.300Z,58.44
2023-04-17T06:34:00.378Z,56.60
2023-04-17T06:37:04.009Z,56.04
2023-04-17T06:40:07.515Z,55.48
2023-04-17T06:43:10.255Z,56.09
2023-04-17T06:46:14.279Z,55.23
2023-04-17T06:49:16.660Z,55.71
2023-04-17T06:52:22.104Z,54.79
2023-04-17T06:55:24.521Z,54.06
2023-04-17T06:58:27.180Z,53.29
2023-04-17T07:01:31.429Z,54.07
2023-04-17T07:04:34.177Z,53.27
2023-04-17T07:07:36.597Z,52.66
2023-04-17T07:10:39.269Z,52.07
2023-04-17T07:13:41.525Z,50.95
2023-04-17T07:16:44.357Z,50.20
2023-04-17T07:19:46.873Z,50.14
2023-04-17T07:22:49.987Z,50.96
2023-04-17T07:25:52.523Z,50.31
2023-04-17T07:28:55.454Z,49.85
2023-04-17T07:31:58.247Z,48.12
2023-04-17T07:35:00.972Z,47.74
2023-04-17T07:38:04.411Z,46.42
2023-04-17T07:41:07.196Z,47.34
2023-04-17T07:44:09.641Z,46.86
2023-04-17T07:47:12.421Z,44.10
2023-04-17T07:50:15.069Z,42.42
2023-04-17T07:53:18.103Z,40.55
2023-04-17T07:56:20.667Z,37.94
2023-04-17T07:59:23.651Z,34.95
2023-04-17T08:02:26.726Z,34.16
2023-04-17T08:05:29.769Z,33.94
2023-04-17T08:08:32.782Z,33.66
2023-04-17T08:11:42.674Z,33.77
2023-04-17T08:14:52.223Z,34.83
2023-04-17T08:17:56.567Z,33.30
2023-04-17T08:20:59.059Z,32.88
2023-04-17T08:24:02.399Z,34.20
2023-04-17T08:27:05.285Z,33.17
2023-04-17T08:30:11.226Z,35.21
2023-04-17T08:33:16.987Z,35.93
2023-04-17T08:36:19.777Z,37.22
2023-04-17T08:39:22.264Z,37.42
2023-04-17T08:42:24.990Z,37.36
2023-04-17T08:45:27.561Z,37.42
2023-04-17T08:48:30.599Z,37.88
2023-04-17T08:51:32.992Z,38.85
2023-04-17T08:54:36.619Z,39.67
2023-04-17T08:57:57.829Z,40.56
2023-04-17T09:01:16.646Z,40.67
2023-04-17T09:04:48.707Z,42.10
2023-04-17T09:08:05.569Z,42.89
2023-04-17T09:11:16.544Z,42.72
2023-04-17T09:14:31.562Z,42.25
2023-04-17T09:17:34.760Z,41.83
2023-04-17T09:20:48.781Z,42.12
2023-04-17T09:23:55.527Z,41.83
2023-04-17T09:27:18.157Z,42.74
2023-04-17T09:30:20.723Z,43.73
2023-04-17T09:33:23.370Z,44.81
2023-04-17T09:36:27.519Z,45.04
2023-04-17T09:39:30.575Z,44.74
2023-04-17T09:42:32.877Z,44.49
2023-04-17T09:45:36.339Z,44.54
2023-04-17T09:48:39.843Z,43.61
2023-04-17T09:51:42.787Z,43.14
2023-04-17T09:54:47.376Z,43.54
2023-04-17T09:57:51.488Z,43.57
2023-04-17T10:00:54.333Z,42.93
2023-04-17T10:03:58.130Z,44.06
2023-04-17T10:07:00.710Z,43.25
2023-04-17T10:10:09.222Z,43.47
2023-04-17T10:13:12.610Z,42.87
2023-04-17T10:16:15.374Z,42.50
2023-04-17T10:19:24.190Z,42.77
2023-04-17T10:22:27.923Z,42.35
2023-04-17T10:25:31.947Z,41.41
2023-04-17T10:28:50.017Z,41.86
2023-04-17T10:32:11.244Z,39.53
2023-04-17T10:35:16.609Z,40.76
2023-04-17T10:38:32.751Z,41.61
2023-04-17T10:41:56.274Z,41.21
2023-04-17T10:45:01.605Z,41.96
2023-04-17T10:48:04.497Z,41.34
2023-04-17T10:51:27.259Z,41.53
2023-04-17T10:54:32.176Z,40.19
2023-04-17T10:57:53.214Z,39.65
2023-04-17T11:00:55.833Z,40.23
2023-04-17T11:04:02.018Z,42.88
2023-04-17T11:07:04.749Z,41.40
2023-04-17T11:10:08.049Z,42.35
2023-04-17T11:13:10.752Z,41.06
2023-04-17T11:16:13.864Z,41.48
2023-04-17T11:19:23.490Z,43.48
2023-04-17T11:22:28.332Z,42.26
2023-04-17T11:25:31.835Z,42.28
2023-04-17T11:28:36.108Z,43.65
2023-04-17T11:31:39.669Z,45.08
2023-04-17T11:34:42.532Z,43.48
2023-04-17T11:38:03.520Z,43.81
2023-04-17T11:41:09.027Z,41.62
2023-04-17T11:44:14.713Z,41.30
2023-04-17T11:47:19.683Z,40.83
2023-04-17T11:50:22.127Z,41.65
2023-04-17T11:53:24.958Z,42.21
2023-04-17T11:56:29.636Z,42.58
2023-04-17T11:59:33.059Z,42.89
2023-04-17T12:02:35.540Z,43.47
2023-04-17T12:05:38.249Z,43.86
2023-04-17T12:08:42.264Z,44.40
2023-04-17T12:11:45.031Z,44.31
2023-04-17T12:14:47.362Z,43.81
2023-04-17T12:17:50.063Z,44.42
2023-04-17T12:20:52.705Z,43.34
2023-04-17T12:23:55.343Z,43.96
2023-04-17T12:26:58.771Z,44.74
2023-04-17T12:30:01.407Z,43.79
2023-04-17T12:33:03.976Z,43.36
2023-04-17T12:36:06.963Z,43.18
2023-04-17T12:39:09.241Z,43.33
2023-04-17T12:42:12.161Z,42.64
2023-04-17T12:45:15.324Z,43.88
2023-04-17T12:48:18.025Z,43.37
2023-04-17T12:51:20.656Z,43.64
2023-04-17T12:54:23.368Z,43.39
2023-04-17T12:57:26.493Z,42.94
2023-04-17T13:00:29.205Z,43.18
2023-04-17T13:03:31.728Z,44.06
2023-04-17T13:06:34.467Z,43.71
2023-04-17T13:09:36.889Z,44.27
2023-04-17T13:12:42.224Z,44.18
2023-04-17T13:15:47.409Z,45.68
2023-04-17T13:18:50.068Z,46.65
2023-04-17T13:21:52.465Z,47.99
2023-04-17T13:24:55.289Z,49.91
2023-04-17T13:27:57.964Z,53.97
2023-04-17T13:31:00.671Z,54.20
2023-04-17T13:34:03.423Z,54.92
2023-04-17T13:37:07.284Z,63.56
2023-04-17T13:40:10.841Z,71.45
2023-04-17T13:43:13.488Z,85.47
2023-04-17T13:46:16.417Z,91.91
2023-04-17T13:49:20.414Z,95.66
2023-04-17T13:52:22.768Z,100.00
2023-04-17T13:55:25.506Z,100.00
2023-04-17T13:58:27.960Z,100.00
2023-04-17T14:01:30.711Z,100.00
2023-04-17T14:04:33.488Z,100.00
2023-04-17T14:07:35.914Z,98.59
2023-04-17T14:10:38.669Z,95.12
2023-04-17T14:13:41.068Z,86.64
2023-04-17T14:16:43.719Z,80.67
2023-04-17T14:19:46.080Z,77.18
2023-04-17T14:22:48.993Z,72.41
2023-04-17T14:25:51.385Z,71.59
2023-04-17T14:28:54.239Z,74.47
2023-04-17T14:31:56.533Z,74.53
2023-04-17T14:35:00.078Z,67.42
2023-04-17T14:38:04.997Z,68.01
2023-04-17T14:41:08.180Z,65.84
2023-04-17T14:44:10.931Z,65.05
2023-04-17T14:47:13.858Z,61.82
2023-04-17T14:50:16.314Z,63.32
2023-04-17T14:53:21.381Z,64.67
2023-04-17T14:56:24.954Z,66.37
2023-04-17T14:59:27.979Z,63.68
2023-04-17T15:02:38.085Z,64.95
2023-04-17T15:05:41.406Z,64.23
2023-04-17T15:08:44.002Z,66.30
2023-04-17T15:11:47.398Z,61.38
2023-04-17T15:14:49.746Z,61.06
2023-04-17T15:17:55.591Z,61.42
2023-04-17T15:20:58.196Z,62.35
2023-04-17T15:24:01.007Z,61.99
2023-04-17T15:27:03.395Z,61.73
2023-04-17T15:30:09.129Z,62.20
2023-04-17T15:33:12.395Z,62.90
2023-04-17T15:36:15.071Z,65.51
2023-04-17T15:39:17.554Z,64.64
2023-04-17T15:42:20.272Z,64.81
2023-04-17T15:45:22.751Z,64.14
2023-04-17T15:48:25.573Z,66.06
2023-04-17T15:51:28.437Z,65.87
2023-04-17T15:54:31.345Z,66.03
2023-04-17T15:57:33.664Z,68.13
2023-04-17T16:00:36.250Z,67.43
2023-04-17T16:03:39.021Z,68.21
2023-04-17T16:06:41.418Z,69.35
2023-04-17T16:09:48.068Z,69.52
2023-04-17T16:12:50.687Z,69.67
2023-04-17T16:15:53.429Z,68.32
2023-04-17T16:18:56.231Z,69.11
2023-04-17T16:21:59.941Z,69.69
2023-04-17T16:25:02.592Z,69.97
2023-04-17T16:28:05.416Z,71.41
2023-04-17T16:31:08.452Z,69.09
2023-04-17T16:34:12.470Z,69.12
2023-04-17T16:37:14.998Z,69.88
2023-04-17T16:40:18.163Z,69.32
2023-04-17T16:43:20.533Z,70.66
2023-04-17T16:46:35.495Z,71.23
2023-04-17T16:49:47.790Z,71.02
2023-04-17T16:52:50.540Z,71.48
2023-04-17T16:55:52.827Z,71.40
2023-04-17T16:58:55.537Z,72.95
2023-04-17T17:02:00.052Z,72.55
2023-04-17T17:05:04.396Z,73.13
2023-04-17T17:08:06.673Z,73.12
2023-04-17T17:11:09.323Z,73.07
2023-04-17T17:14:11.866Z,73.24
2023-04-17T17:17:14.444Z,73.18
2023-04-17T17:20:16.868Z,74.16
2023-04-17T17:23:19.573Z,73.46
2023-04-17T17:26:21.890Z,74.30
2023-04-17T17:29:24.502Z,74.74
2023-04-17T17:32:27.110Z,74.99
2023-04-17T17:35:29.802Z,75.47
2023-04-17T17:38:32.747Z,76.62
2023-04-17T17:41:35.490Z,76.45
2023-04-17T17:44:38.633Z,78.03
2023-04-17T17:47:41.384Z,77.21
2023-04-17T17:50:44.230Z,77.94
2023-04-17T17:53:46.829Z,78.79
2023-04-17T17:56:49.364Z,78.65
2023-04-17T17:59:52.166Z,77.76
2023-04-17T18:02:54.900Z,77.10
2023-04-17T18:05:57.665Z,77.99
2023-04-17T18:09:00.481Z,78.51
2023-04-17T18:12:05.784Z,78.63
2023-04-17T18:15:08.781Z,78.75
2023-04-17T18:18:11.457Z,78.81
2023-04-17T18:21:14.119Z,78.50
2023-04-17T18:24:16.769Z,78.86
2023-04-17T18:27:20.033Z,79.09
2023-04-17T18:30:22.766Z,79.54
2023-04-17T18:33:25.118Z,80.01
2023-04-17T18:36:27.912Z,80.81
2023-04-17T18:39:30.942Z,81.70
2023-04-17T18:42:34.195Z,81.98
2023-04-17T18:45:36.771Z,82.14
2023-04-17T18:48:39.578Z,83.21
2023-04-17T18:51:47.890Z,83.25
2023-04-17T18:54:50.629Z,83.14
2023-04-17T18:57:52.988Z,83.21
2023-04-17T19:00:55.640Z,84.48
2023-04-17T19:03:58.154Z,85.15
2023-04-17T19:07:02.760Z,86.92
2023-04-17T19:10:05.650Z,86.69
2023-04-17T19:13:09.851Z,87.04
2023-04-17T19:16:12.173Z,87.34
2023-04-17T19:19:15.526Z,86.95
2023-04-17T19:22:18.629Z,87.08
2023-04-17T19:25:21.584Z,87.21
2023-04-17T19:28:27.152Z,87.51
2023-04-17T19:31:30.914Z,87.92
2023-04-17T19:34:33.426Z,87.89
2023-04-17T19:37:36.201Z,87.06
2023-04-17T19:40:38.604Z,87.70
2023-04-17T19:43:42.505Z,88.48
2023-04-17T19:46:45.192Z,89.20
2023-04-17T19:49:48.753Z,89.34
2023-04-17T19:52:51.182Z,88.98
2023-04-17T19:55:53.881Z,89.13
2023-04-17T19:59:02.209Z,89.72
2023-04-17T20:02:04.960Z,89.47
2023-04-17T20:05:07.977Z,90.17
2023-04-17T20:08:10.741Z,90.56
2023-04-17T20:11:15.020Z,90.94
2023-04-17T20:14:19.552Z,90.50
2023-04-17T20:17:22.267Z,90.65
2023-04-17T20:20:24.709Z,90.13
2023-04-17T20:23:27.652Z,90.92
2023-04-17T20:26:29.992Z,91.68
2023-04-17T20:29:32.671Z,91.99
2023-04-17T20:32:35.350Z,91.99
2023-04-17T20:35:38.111Z,91.91
2023-04-17T20:38:40.607Z,91.94
2023-04-17T20:41:43.788Z,92.22
2023-04-17T20:44:46.160Z,92.38
2023-04-17T20:50:55.957Z,92.19
2023-04-17T20:53:58.554Z,92.50
2023-04-17T20:57:01.819Z,93.06
2023-04-17T21:00:05.295Z,93.25
2023-04-17T21:03:08.326Z,93.88
2023-04-17T21:06:11.017Z,94.12
2023-04-17T21:09:14.808Z,94.43
2023-04-17T21:12:17.451Z,94.79
2023-04-17T21:15:21.020Z,94.64
2023-04-17T21:18:23.643Z,96.07
2023-04-17T21:21:30.580Z,95.97
2023-04-17T21:24:33.385Z,96.74
2023-04-17T21:27:35.766Z,96.33
2023-04-17T21:30:38.388Z,96.49
2023-04-17T21:33:40.895Z,97.29
2023-04-17T21:36:43.571Z,98.32
2023-04-17T21:39:46.038Z,99.34
2023-04-17T21:42:48.655Z,99.63
2023-04-17T21:45:51.237Z,100.00
2023-04-17T21:48:54.275Z,100.00
2023-04-17T21:51:57.136Z,100.00
2023-04-17T21:55:05.025Z,100.00
2023-04-17T21:58:07.457Z,100.00
2023-04-17T22:01:10.070Z,100.00
2023-04-17T22:04:12.848Z,100.00
2023-04-17T22:07:15.658Z,100.00
2023-04-17T22:10:18.433Z,100.00
2023-04-17T22:13:20.992Z,100.00
2023-04-17T22:16:23.612Z,100.00
2023-04-17T22:19:26.101Z,100.00
2023-04-17T22:22:28.874Z,100.00
2023-04-17T22:25:31.198Z,100.00
2023-04-17T22:28:34.324Z,100.00
2023-04-17T22:31:37.504Z,100.00
2023-04-17T22:34:42.407Z,100.00
2023-04-17T22:37:45.003Z,100.00
2023-04-17T22:40:48.955Z,100.00
2023-04-17T22:43:51.527Z,100.00
2023-04-17T22:46:54.067Z,100.00
2023-04-17T22:49:56.731Z,100.00
2023-04-17T22:52:59.637Z,100.00
2023-04-17T22:56:03.509Z,100.00
2023-04-17T22:59:06.303Z,100.00
2023-04-17T23:02:08.940Z,100.00
2023-04-17T23:05:11.778Z,100.00
2023-04-17T23:08:14.130Z,100.00
2023-04-17T23:11:17.405Z,100.00
2023-04-17T23:14:19.879Z,100.00
2023-04-17T23:17:22.538Z,100.00
2023-04-17T23:20:25.137Z,100.00
2023-04-17T23:23:27.948Z,100.00
2023-04-17T23:26:30.222Z,100.00
2023-04-17T23:29:32.884Z,100.00
2023-04-17T23:32:35.259Z,100.00
2023-04-17T23:35:38.532Z,100.00
2023-04-17T23:38:40.811Z,100.00
2023-04-17T23:41:43.520Z,100.00
2023-04-17T23:44:46.523Z,100.00
2023-04-17T23:47:49.205Z,100.00
2023-04-17T23:50:52.081Z,100.00
2023-04-17T23:53:56.930Z,100.00
2023-04-17T23:57:02.193Z,100.00
